FRS131 EDDH-EDXW
Flight info
| Callsign | FRS131 |
|---|---|
| Flight time | 0h 43m |
| Altitude | 4500 |
| Route | DCT |
| Aircraft | C208/L-SDFGR/C |
Departure
| Time | 2026-05-06 10:16 |
|---|---|
| Airport | Hamburg Helmut Schmidt Airport (EDDH) |
Arrival
| Time | 2026-05-06 11:00 |
|---|---|
| Airport | Westerland Sylt Airport (EDXW) |
| Time | Latitude | Longitude | Altitude | Speed | Heading |
|---|---|---|---|---|---|
| 2026-05-06 10:08 | 53.62708 | 9.98925 | 45 ft | 0 kts | 250° |
| 2026-05-06 10:11 | 53.62709 | 9.98882 | 45 ft | 8 kts | 305° |
| 2026-05-06 10:11 | 53.62756 | 9.98829 | 45 ft | 9 kts | 332° |
| 2026-05-06 10:11 | 53.62789 | 9.98763 | 45 ft | 8 kts | 251° |
| 2026-05-06 10:11 | 53.62751 | 9.98676 | 45 ft | 10 kts | 231° |
| 2026-05-06 10:12 | 53.62704 | 9.98581 | 45 ft | 11 kts | 230° |
| 2026-05-06 10:12 | 53.62649 | 9.98470 | 45 ft | 13 kts | 230° |
| 2026-05-06 10:12 | 53.62587 | 9.98343 | 44 ft | 15 kts | 230° |
| 2026-05-06 10:12 | 53.62517 | 9.98206 | 44 ft | 16 kts | 220° |
| 2026-05-06 10:13 | 53.62427 | 9.98080 | 43 ft | 18 kts | 222° |
| 2026-05-06 10:13 | 53.62345 | 9.97918 | 43 ft | 19 kts | 231° |
| 2026-05-06 10:13 | 53.62268 | 9.97760 | 42 ft | 14 kts | 230° |
| 2026-05-06 10:13 | 53.62200 | 9.97625 | 42 ft | 16 kts | 232° |
| 2026-05-06 10:14 | 53.62192 | 9.97447 | 42 ft | 16 kts | 300° |
| 2026-05-06 10:14 | 53.62275 | 9.97367 | 44 ft | 12 kts | 1° |
| 2026-05-06 10:14 | 53.62340 | 9.97419 | 44 ft | 10 kts | 45° |
| 2026-05-06 10:14 | 53.62387 | 9.97508 | 43 ft | 10 kts | 49° |
| 2026-05-06 10:15 | 53.62502 | 9.97739 | 43 ft | 57 kts | 50° |
| 2026-05-06 10:15 | 53.62866 | 9.98477 | 87 ft | 98 kts | 50° |
| 2026-05-06 10:15 | 53.63330 | 9.99421 | 200 ft | 108 kts | 50° |
| 2026-05-06 10:15 | 53.63793 | 10.00433 | 330 ft | 110 kts | 63° |
| 2026-05-06 10:16 | 53.63673 | 10.01699 | 467 ft | 122 kts | 126° |
| 2026-05-06 10:16 | 53.62912 | 10.02396 | 609 ft | 127 kts | 154° |
| 2026-05-06 10:16 | 53.62019 | 10.02235 | 694 ft | 145 kts | 212° |
| 2026-05-06 10:16 | 53.61355 | 10.00885 | 802 ft | 154 kts | 237° |
| 2026-05-06 10:17 | 53.60718 | 9.99401 | 935 ft | 159 kts | 236° |
| 2026-05-06 10:17 | 53.60219 | 9.97763 | 1057 ft | 158 kts | 265° |
| 2026-05-06 10:17 | 53.60338 | 9.95968 | 1195 ft | 154 kts | 285° |
| 2026-05-06 10:17 | 53.60596 | 9.94228 | 1338 ft | 154 kts | 295° |
| 2026-05-06 10:18 | 53.61000 | 9.92576 | 1473 ft | 156 kts | 302° |
| 2026-05-06 10:18 | 53.61494 | 9.90925 | 1612 ft | 159 kts | 304° |
| 2026-05-06 10:18 | 53.62047 | 9.89292 | 1746 ft | 162 kts | 304° |
| 2026-05-06 10:18 | 53.62593 | 9.87608 | 1887 ft | 166 kts | 303° |
| 2026-05-06 10:19 | 53.63144 | 9.85857 | 1969 ft | 174 kts | 303° |
| 2026-05-06 10:19 | 53.63719 | 9.84019 | 1968 ft | 180 kts | 303° |
| 2026-05-06 10:19 | 53.64313 | 9.82131 | 1964 ft | 184 kts | 303° |
| 2026-05-06 10:19 | 53.65021 | 9.80402 | 1976 ft | 174 kts | 320° |
| 2026-05-06 10:20 | 53.65891 | 9.79045 | 1981 ft | 166 kts | 329° |
| 2026-05-06 10:20 | 53.66897 | 9.78128 | 1986 ft | 165 kts | 339° |
| 2026-05-06 10:20 | 53.67943 | 9.77279 | 1992 ft | 169 kts | 339° |
| 2026-05-06 10:20 | 53.69029 | 9.76468 | 1988 ft | 172 kts | 346° |
| 2026-05-06 10:21 | 53.70165 | 9.75992 | 1972 ft | 164 kts | 354° |
| 2026-05-06 10:21 | 53.71256 | 9.75606 | 1976 ft | 157 kts | 353° |
| 2026-05-06 10:21 | 53.72315 | 9.75252 | 1977 ft | 154 kts | 354° |
| 2026-05-06 10:21 | 53.73366 | 9.74904 | 1978 ft | 154 kts | 354° |
| 2026-05-06 10:22 | 53.74401 | 9.74440 | 1978 ft | 156 kts | 345° |
| 2026-05-06 10:22 | 53.75405 | 9.73730 | 1979 ft | 157 kts | 342° |
| 2026-05-06 10:22 | 53.76399 | 9.72951 | 1981 ft | 158 kts | 341° |
| 2026-05-06 10:22 | 53.77401 | 9.72153 | 1983 ft | 160 kts | 340° |
| 2026-05-06 10:23 | 53.78409 | 9.71345 | 1988 ft | 160 kts | 340° |
| 2026-05-06 10:23 | 53.79415 | 9.70539 | 1986 ft | 160 kts | 340° |
| 2026-05-06 10:23 | 53.80423 | 9.69727 | 1983 ft | 161 kts | 340° |
| 2026-05-06 10:23 | 53.81435 | 9.68916 | 1985 ft | 161 kts | 340° |
| 2026-05-06 10:24 | 53.82447 | 9.68103 | 1985 ft | 161 kts | 340° |
| 2026-05-06 10:24 | 53.83459 | 9.67291 | 1984 ft | 161 kts | 340° |
| 2026-05-06 10:24 | 53.84473 | 9.66482 | 1984 ft | 161 kts | 340° |
| 2026-05-06 10:24 | 53.85489 | 9.65658 | 1983 ft | 162 kts | 340° |
| 2026-05-06 10:25 | 53.86512 | 9.64833 | 1984 ft | 164 kts | 340° |
| 2026-05-06 10:25 | 53.87545 | 9.64000 | 1987 ft | 165 kts | 340° |
| 2026-05-06 10:25 | 53.88595 | 9.63233 | 1982 ft | 162 kts | 349° |
| 2026-05-06 10:25 | 53.89682 | 9.62734 | 1983 ft | 162 kts | 350° |
| 2026-05-06 10:26 | 53.90760 | 9.62189 | 1984 ft | 162 kts | 349° |
| 2026-05-06 10:26 | 53.91848 | 9.61642 | 1999 ft | 164 kts | 349° |
| 2026-05-06 10:26 | 53.92955 | 9.61092 | 2004 ft | 167 kts | 348° |
| 2026-05-06 10:26 | 53.94049 | 9.60524 | 1998 ft | 166 kts | 349° |
| 2026-05-06 10:27 | 53.95154 | 9.60010 | 1991 ft | 164 kts | 348° |
| 2026-05-06 10:27 | 53.96240 | 9.59465 | 1987 ft | 162 kts | 348° |
| 2026-05-06 10:27 | 53.97316 | 9.58919 | 1989 ft | 161 kts | 348° |
| 2026-05-06 10:27 | 53.98369 | 9.58270 | 1988 ft | 163 kts | 336° |
| 2026-05-06 10:28 | 53.99235 | 9.56982 | 1993 ft | 170 kts | 314° |
| 2026-05-06 10:28 | 53.99780 | 9.55163 | 1989 ft | 177 kts | 290° |
| 2026-05-06 10:28 | 54.00021 | 9.53118 | 1995 ft | 176 kts | 285° |
| 2026-05-06 10:28 | 54.00276 | 9.51078 | 1998 ft | 177 kts | 286° |
| 2026-05-06 10:29 | 54.00525 | 9.49034 | 1996 ft | 176 kts | 285° |
| 2026-05-06 10:29 | 54.00774 | 9.46984 | 1992 ft | 178 kts | 285° |
| 2026-05-06 10:29 | 54.01020 | 9.44924 | 1997 ft | 177 kts | 285° |
| 2026-05-06 10:29 | 54.01270 | 9.42866 | 1999 ft | 178 kts | 285° |
| 2026-05-06 10:30 | 54.01759 | 9.41024 | 1996 ft | 168 kts | 320° |
| 2026-05-06 10:30 | 54.02671 | 9.39837 | 1991 ft | 164 kts | 329° |
| 2026-05-06 10:30 | 54.03605 | 9.38746 | 2008 ft | 162 kts | 334° |
| 2026-05-06 10:30 | 54.04586 | 9.37766 | 2013 ft | 165 kts | 334° |
| 2026-05-06 10:31 | 54.05581 | 9.36799 | 2015 ft | 165 kts | 335° |
| 2026-05-06 10:31 | 54.06577 | 9.35814 | 2008 ft | 166 kts | 335° |
| 2026-05-06 10:31 | 54.07579 | 9.34849 | 2009 ft | 165 kts | 335° |
| 2026-05-06 10:31 | 54.08574 | 9.33864 | 2010 ft | 165 kts | 335° |
| 2026-05-06 10:32 | 54.09559 | 9.32876 | 2007 ft | 164 kts | 335° |
| 2026-05-06 10:32 | 54.10543 | 9.31886 | 2009 ft | 165 kts | 334° |
| 2026-05-06 10:32 | 54.11527 | 9.30898 | 2009 ft | 164 kts | 335° |
| 2026-05-06 10:32 | 54.12183 | 9.30252 | 2010 ft | 165 kts | 334° |
| 2026-05-06 10:33 | 54.13515 | 9.28953 | 2011 ft | 165 kts | 335° |
| 2026-05-06 10:33 | 54.14172 | 9.28315 | 2009 ft | 164 kts | 335° |
| 2026-05-06 10:33 | 54.15166 | 9.27349 | 2014 ft | 165 kts | 335° |
| 2026-05-06 10:33 | 54.16163 | 9.26387 | 2011 ft | 164 kts | 335° |
| 2026-05-06 10:34 | 54.17153 | 9.25437 | 2009 ft | 163 kts | 335° |
| 2026-05-06 10:34 | 54.18135 | 9.24479 | 2002 ft | 163 kts | 335° |
| 2026-05-06 10:34 | 54.19109 | 9.23507 | 2009 ft | 162 kts | 334° |
| 2026-05-06 10:34 | 54.20100 | 9.22624 | 2007 ft | 159 kts | 343° |
| 2026-05-06 10:35 | 54.21133 | 9.21951 | 2016 ft | 160 kts | 343° |
| 2026-05-06 10:35 | 54.22180 | 9.21267 | 2016 ft | 162 kts | 344° |
| 2026-05-06 10:35 | 54.23236 | 9.20580 | 2017 ft | 162 kts | 344° |
| 2026-05-06 10:35 | 54.24287 | 9.19898 | 2017 ft | 161 kts | 343° |
| 2026-05-06 10:36 | 54.25336 | 9.19235 | 2016 ft | 161 kts | 344° |
| 2026-05-06 10:36 | 54.26388 | 9.18577 | 2013 ft | 161 kts | 343° |
| 2026-05-06 10:36 | 54.27442 | 9.17916 | 2012 ft | 161 kts | 343° |
| 2026-05-06 10:36 | 54.28494 | 9.17259 | 2016 ft | 161 kts | 343° |
| 2026-05-06 10:37 | 54.29545 | 9.16586 | 2015 ft | 161 kts | 344° |
| 2026-05-06 10:37 | 54.30588 | 9.15903 | 2023 ft | 160 kts | 343° |
| 2026-05-06 10:37 | 54.31632 | 9.15220 | 2020 ft | 161 kts | 343° |
| 2026-05-06 10:37 | 54.32676 | 9.14531 | 2014 ft | 161 kts | 343° |
| 2026-05-06 10:38 | 54.33732 | 9.13869 | 2016 ft | 163 kts | 343° |
| 2026-05-06 10:38 | 54.34798 | 9.13196 | 2017 ft | 164 kts | 344° |
| 2026-05-06 10:38 | 54.35873 | 9.12525 | 2014 ft | 164 kts | 344° |
| 2026-05-06 10:38 | 54.36936 | 9.11823 | 2032 ft | 165 kts | 339° |
| 2026-05-06 10:39 | 54.37964 | 9.10952 | 2027 ft | 164 kts | 338° |
| 2026-05-06 10:39 | 54.38980 | 9.10090 | 2028 ft | 163 kts | 338° |
| 2026-05-06 10:39 | 54.39991 | 9.09230 | 2032 ft | 162 kts | 338° |
| 2026-05-06 10:39 | 54.41012 | 9.08382 | 2027 ft | 163 kts | 338° |
| 2026-05-06 10:40 | 54.42027 | 9.07525 | 2037 ft | 163 kts | 338° |
| 2026-05-06 10:40 | 54.43047 | 9.06666 | 2032 ft | 163 kts | 338° |
| 2026-05-06 10:40 | 54.44071 | 9.05806 | 2031 ft | 164 kts | 338° |
| 2026-05-06 10:40 | 54.45093 | 9.04945 | 2022 ft | 163 kts | 338° |
| 2026-05-06 10:41 | 54.46114 | 9.04100 | 2029 ft | 164 kts | 338° |
| 2026-05-06 10:41 | 54.47126 | 9.03223 | 2031 ft | 162 kts | 335° |
| 2026-05-06 10:41 | 54.48127 | 9.02320 | 2033 ft | 163 kts | 336° |
| 2026-05-06 10:41 | 54.49129 | 9.01409 | 2030 ft | 163 kts | 336° |
| 2026-05-06 10:42 | 54.50127 | 9.00504 | 2028 ft | 162 kts | 335° |
| 2026-05-06 10:42 | 54.51125 | 8.99615 | 2032 ft | 161 kts | 336° |
| 2026-05-06 10:42 | 54.52115 | 8.98728 | 2032 ft | 161 kts | 336° |
| 2026-05-06 10:42 | 54.53099 | 8.97821 | 2038 ft | 161 kts | 335° |
| 2026-05-06 10:43 | 54.54089 | 8.96922 | 2039 ft | 161 kts | 335° |
| 2026-05-06 10:43 | 54.55082 | 8.96029 | 2040 ft | 161 kts | 336° |
| 2026-05-06 10:43 | 54.56081 | 8.95127 | 1996 ft | 165 kts | 336° |
| 2026-05-06 10:44 | 54.58115 | 8.93298 | 1941 ft | 163 kts | 335° |
| 2026-05-06 10:44 | 54.59124 | 8.92402 | 1943 ft | 163 kts | 335° |
| 2026-05-06 10:44 | 54.60132 | 8.91504 | 1933 ft | 163 kts | 335° |
| 2026-05-06 10:44 | 54.61133 | 8.90603 | 1932 ft | 162 kts | 335° |
| 2026-05-06 10:45 | 54.62136 | 8.89721 | 1936 ft | 161 kts | 336° |
| 2026-05-06 10:45 | 54.63140 | 8.88834 | 1937 ft | 162 kts | 335° |
| 2026-05-06 10:45 | 54.64143 | 8.87944 | 1940 ft | 163 kts | 336° |
| 2026-05-06 10:45 | 54.65155 | 8.87042 | 1936 ft | 164 kts | 335° |
| 2026-05-06 10:46 | 54.66166 | 8.86128 | 1945 ft | 165 kts | 335° |
| 2026-05-06 10:46 | 54.67189 | 8.85217 | 1942 ft | 165 kts | 336° |
| 2026-05-06 10:46 | 54.68210 | 8.84322 | 1932 ft | 164 kts | 335° |
| 2026-05-06 10:46 | 54.69231 | 8.83445 | 1951 ft | 165 kts | 336° |
| 2026-05-06 10:47 | 54.70245 | 8.82543 | 1934 ft | 166 kts | 334° |
| 2026-05-06 10:47 | 54.71263 | 8.81623 | 1941 ft | 164 kts | 336° |
| 2026-05-06 10:47 | 54.72283 | 8.80741 | 1941 ft | 165 kts | 337° |
| 2026-05-06 10:47 | 54.73313 | 8.79832 | 1929 ft | 166 kts | 335° |
| 2026-05-06 10:48 | 54.74336 | 8.78899 | 1930 ft | 168 kts | 332° |
| 2026-05-06 10:48 | 54.75351 | 8.77871 | 1953 ft | 170 kts | 333° |
| 2026-05-06 10:48 | 54.76381 | 8.76892 | 1954 ft | 168 kts | 334° |
| 2026-05-06 10:48 | 54.77416 | 8.75923 | 1952 ft | 170 kts | 334° |
| 2026-05-06 10:49 | 54.78449 | 8.74968 | 1945 ft | 166 kts | 335° |
| 2026-05-06 10:49 | 54.79456 | 8.73996 | 1941 ft | 166 kts | 332° |
| 2026-05-06 10:49 | 54.80460 | 8.73020 | 1940 ft | 164 kts | 334° |
| 2026-05-06 10:49 | 54.81471 | 8.72088 | 1910 ft | 166 kts | 333° |
| 2026-05-06 10:50 | 54.82485 | 8.71127 | 1892 ft | 168 kts | 334° |
| 2026-05-06 10:50 | 54.83514 | 8.70151 | 1853 ft | 167 kts | 332° |
| 2026-05-06 10:50 | 54.84521 | 8.69126 | 1839 ft | 168 kts | 332° |
| 2026-05-06 10:50 | 54.85506 | 8.68068 | 1804 ft | 161 kts | 329° |
| 2026-05-06 10:51 | 54.86395 | 8.67005 | 1763 ft | 151 kts | 325° |
| 2026-05-06 10:51 | 54.87176 | 8.65862 | 1763 ft | 139 kts | 319° |
| 2026-05-06 10:51 | 54.87749 | 8.64612 | 1755 ft | 128 kts | 311° |
| 2026-05-06 10:51 | 54.88219 | 8.63328 | 1730 ft | 126 kts | 296° |
| 2026-05-06 10:52 | 54.88494 | 8.61894 | 1654 ft | 125 kts | 287° |
| 2026-05-06 10:52 | 54.88628 | 8.60384 | 1571 ft | 128 kts | 279° |
| 2026-05-06 10:52 | 54.88717 | 8.58868 | 1487 ft | 125 kts | 279° |
| 2026-05-06 10:52 | 54.88735 | 8.57372 | 1480 ft | 123 kts | 273° |
| 2026-05-06 10:53 | 54.88697 | 8.55886 | 1480 ft | 123 kts | 269° |
| 2026-05-06 10:53 | 54.88636 | 8.54411 | 1479 ft | 122 kts | 269° |
| 2026-05-06 10:53 | 54.88584 | 8.52939 | 1485 ft | 123 kts | 270° |
| 2026-05-06 10:53 | 54.88529 | 8.51448 | 1485 ft | 124 kts | 270° |
| 2026-05-06 10:54 | 54.88469 | 8.49956 | 1462 ft | 124 kts | 269° |
| 2026-05-06 10:54 | 54.88414 | 8.48461 | 1430 ft | 123 kts | 274° |
| 2026-05-06 10:54 | 54.88550 | 8.47024 | 1398 ft | 119 kts | 294° |
| 2026-05-06 10:54 | 54.88911 | 8.45740 | 1374 ft | 119 kts | 300° |
| 2026-05-06 10:55 | 54.89267 | 8.44440 | 1350 ft | 119 kts | 299° |
| 2026-05-06 10:55 | 54.89627 | 8.43142 | 1322 ft | 119 kts | 300° |
| 2026-05-06 10:55 | 54.89989 | 8.41841 | 1298 ft | 120 kts | 300° |
| 2026-05-06 10:55 | 54.90348 | 8.40525 | 1278 ft | 121 kts | 299° |
| 2026-05-06 10:56 | 54.90690 | 8.39261 | 1269 ft | 103 kts | 300° |
| 2026-05-06 10:56 | 54.90975 | 8.38199 | 1230 ft | 94 kts | 300° |
| 2026-05-06 10:56 | 54.91360 | 8.37331 | 1170 ft | 92 kts | 316° |
| 2026-05-06 10:56 | 54.91779 | 8.36464 | 1111 ft | 92 kts | 318° |
| 2026-05-06 10:57 | 54.92257 | 8.35761 | 1062 ft | 92 kts | 323° |
| 2026-05-06 10:57 | 54.92744 | 8.35038 | 1016 ft | 91 kts | 324° |
| 2026-05-06 10:57 | 54.93222 | 8.34330 | 986 ft | 90 kts | 323° |
| 2026-05-06 10:57 | 54.93699 | 8.33627 | 962 ft | 91 kts | 324° |
| 2026-05-06 10:58 | 54.94095 | 8.32794 | 920 ft | 95 kts | 287° |
| 2026-05-06 10:58 | 54.93823 | 8.31734 | 885 ft | 103 kts | 230° |
| 2026-05-06 10:58 | 54.93214 | 8.31143 | 840 ft | 104 kts | 176° |
| 2026-05-06 10:58 | 54.92691 | 8.31801 | 777 ft | 89 kts | 113° |
| 2026-05-06 10:59 | 54.92314 | 8.32655 | 616 ft | 88 kts | 128° |
| 2026-05-06 10:59 | 54.91846 | 8.33411 | 157 ft | 97 kts | 141° |
| 2026-05-06 10:59 | 54.91356 | 8.34016 | 40 ft | 72 kts | 144° |
| 2026-05-06 10:59 | 54.91009 | 8.34455 | 41 ft | 56 kts | 146° |
| 2026-05-06 11:00 | 54.90710 | 8.34823 | 38 ft | 50 kts | 144° |
| 2026-05-06 11:00 | 54.90591 | 8.34922 | 40 ft | 10 kts | 202° |
| 2026-05-06 11:00 | 54.90526 | 8.34826 | 39 ft | 14 kts | 223° |
| 2026-05-06 11:00 | 54.90519 | 8.34816 | 39 ft | 0 kts | 223° |
| 2026-05-06 11:01 | 54.90515 | 8.34809 | 39 ft | 9 kts | 223° |
| 2026-05-06 11:01 | 54.90373 | 8.34584 | 39 ft | 32 kts | 222° |
| 2026-05-06 11:01 | 54.90251 | 8.34271 | 39 ft | 31 kts | 252° |
| 2026-05-06 11:02 | 54.90245 | 8.33918 | 39 ft | 28 kts | 278° |
| 2026-05-06 11:02 | 54.90285 | 8.33601 | 38 ft | 26 kts | 295° |
| 2026-05-06 11:02 | 54.90388 | 8.33372 | 38 ft | 23 kts | 321° |
| 2026-05-06 11:02 | 54.90520 | 8.33261 | 38 ft | 20 kts | 345° |
| 2026-05-06 11:03 | 54.90650 | 8.33236 | 38 ft | 18 kts | 355° |
| 2026-05-06 11:03 | 54.90768 | 8.33220 | 38 ft | 16 kts | 354° |
| 2026-05-06 11:03 | 54.90873 | 8.33179 | 38 ft | 15 kts | 339° |
| 2026-05-06 11:03 | 54.90953 | 8.33099 | 38 ft | 10 kts | 315° |
| 2026-05-06 11:04 | 54.91014 | 8.32982 | 38 ft | 19 kts | 318° |
| 2026-05-06 11:04 | 54.91102 | 8.32820 | 37 ft | 18 kts | 312° |
| 2026-05-06 11:04 | 54.91181 | 8.32662 | 37 ft | 17 kts | 311° |
| 2026-05-06 11:04 | 54.91274 | 8.32570 | 38 ft | 10 kts | 326° |
| 2026-05-06 11:05 | 54.91271 | 8.32510 | 38 ft | 0 kts | 224° |